Sint-Genesius-Rode, Belgium

5:12 AM CEST on August 02, 2015 (GMT +0200)
Sint Genesius Rode | | Change Station
CLOSE
Current Station
Personal Weather Station
Location: Sint-Genesius-Rode, VLAAMS BRABANT
Elevation: 305 ft
Nearby Weather Stations

Elev 305 ft 50.75 °N, 4.36 °E | Updated 10 seconds ago

Clear
Clear
48.6 °F
Feels Like 49 °F
N
0.0
Wind Variable Wind from North
Gusts 0.0 mph

Today
High -- | Low -- °F
--% Chance of Precip.
Yesterday
High -- | Low -- °F
Precip. -- in
6:09 AM 9:26 PM
Waning Gibbous, 96% visible
Pressure 30.09 in
Visibility 6.2 miles
Clouds
Windchill 49 °F
Dew Point 48 °F
Humidity 96%
Rainfall 0.00 in
Snow Depth Not available.
UV Not available.
Pollen Not available.
Air Quality Not available.
Flu Activity Not available.
METAR EBBE 020255Z AUTO VRB02KT 9999 NCD 12/09 Q1019 BLU

More Conditions Fewer Conditions

Pressure 30.09 in
Visibility 6.2 miles
Clouds
Windchill 49 °F
Dew Point 48 °F
Humidity 96%
Rainfall 0.00 in
Snow Depth Not available.
UV Not available.
Pollen Not available.
Air Quality Not available.
Flu Activity Not available.
METAR EBBE 020255Z AUTO VRB02KT 9999 NCD 12/09 Q1019 BLU

More Conditions Fewer Conditions

10-Day Weather Forecast

×

Almanac

Astronomy

Aug. 02, 2015 Rise Set
Actual Time
Civil Twilight
Nautical Twilight
Astronomical Twilight
Moon
Length of Visible Light
Length of Day
Tomorrow will be .
, % of the Moon is Illuminated

Today's Extremes

Country Highs Country Lows

Community

WunderPhotos

Upload Photos

1,843,152 photos uploaded!

WunderBlogs® & News

Nearby

Air Quality

  Air Quality AQ Index Pollutant
Not available.

Snow Depth

Station Depth Elevation

Earthquake Activity

City Distance Mag. Time & Date
Minimum magnitude displayed is 2.5.

Coastal Water Temperatures

Place Temperature

Stations

Nearby Weather Stations

Station Location Temp. Windchill Dew Point Humidity Wind Precip. Elev Updated Type